createdAt,value
2018-11-07T00:00:17.168Z,83.05
2018-11-07T00:02:45.589Z,83.57
2018-11-07T00:05:14.611Z,83.35
2018-11-07T00:07:42.278Z,83.85
2018-11-07T00:10:10.013Z,84.55
2018-11-07T00:12:38.025Z,83.88
2018-11-07T00:15:08.506Z,83.47
2018-11-07T00:17:36.173Z,83.90
2018-11-07T00:20:05.449Z,83.64
2018-11-07T00:22:33.217Z,84.69
2018-11-07T00:25:00.894Z,84.15
2018-11-07T00:27:28.612Z,84.21
2018-11-07T00:29:56.419Z,83.63
2018-11-07T00:32:24.033Z,83.87
2018-11-07T00:34:51.741Z,83.37
2018-11-07T00:37:19.407Z,83.03
2018-11-07T00:39:47.357Z,82.87
2018-11-07T00:42:15.132Z,82.82
2018-11-07T00:44:42.825Z,83.30
2018-11-07T00:47:10.590Z,83.17
2018-11-07T00:49:38.305Z,82.82
2018-11-07T00:52:06.018Z,82.73
2018-11-07T00:54:33.758Z,82.89
2018-11-07T00:57:01.514Z,82.81
2018-11-07T00:59:29.240Z,83.04
2018-11-07T01:01:56.952Z,83.20
2018-11-07T01:04:24.604Z,83.38
2018-11-07T01:06:52.325Z,83.02
2018-11-07T01:09:20.093Z,82.80
2018-11-07T01:11:47.782Z,83.07
2018-11-07T01:14:15.494Z,82.29
2018-11-07T01:16:43.190Z,82.09
2018-11-07T01:19:10.823Z,82.02
2018-11-07T01:21:38.473Z,83.25
2018-11-07T01:24:06.398Z,84.56
2018-11-07T01:26:34.225Z,85.30
2018-11-07T01:29:01.920Z,84.91
2018-11-07T01:31:29.938Z,84.15
2018-11-07T01:33:57.808Z,83.82
2018-11-07T01:36:25.668Z,83.51
2018-11-07T01:38:53.307Z,85.05
2018-11-07T01:41:24.299Z,85.10
2018-11-07T01:43:52.089Z,85.14
2018-11-07T01:46:19.779Z,84.60
2018-11-07T01:48:47.548Z,86.84
2018-11-07T01:51:15.306Z,87.73
2018-11-07T01:53:43.185Z,87.45
2018-11-07T01:56:11.121Z,86.47
2018-11-07T01:58:39.114Z,85.98
2018-11-07T02:01:07.146Z,85.85
2018-11-07T02:03:35.730Z,86.46
2018-11-07T02:06:03.636Z,87.02
2018-11-07T02:08:31.605Z,86.85
2018-11-07T02:11:00.183Z,86.89
2018-11-07T02:13:28.141Z,87.82
2018-11-07T02:15:55.940Z,88.28
2018-11-07T02:18:23.684Z,88.48
2018-11-07T02:20:51.428Z,88.61
2018-11-07T02:23:19.137Z,88.36
2018-11-07T02:25:47.192Z,87.71
2018-11-07T02:28:14.933Z,88.00
2018-11-07T02:30:42.606Z,88.08
2018-11-07T02:33:10.349Z,88.27
2018-11-07T02:35:38.033Z,87.90
2018-11-07T02:38:05.693Z,87.83
2018-11-07T02:40:33.413Z,87.56
2018-11-07T02:43:01.285Z,87.51
2018-11-07T02:45:28.979Z,88.64
2018-11-07T02:47:56.751Z,88.15
2018-11-07T02:50:24.420Z,88.26
2018-11-07T02:52:52.109Z,88.05
2018-11-07T02:55:19.769Z,88.02
2018-11-07T02:57:47.469Z,87.92
2018-11-07T03:00:15.265Z,88.51
2018-11-07T03:02:42.992Z,88.54
2018-11-07T03:05:10.726Z,88.95
2018-11-07T03:07:39.407Z,89.23
2018-11-07T03:10:09.774Z,89.16
2018-11-07T03:12:37.825Z,89.60
2018-11-07T03:15:06.080Z,88.68
2018-11-07T03:17:33.796Z,88.20
2018-11-07T03:20:01.478Z,88.57
2018-11-07T03:22:29.209Z,88.72
2018-11-07T03:24:56.946Z,88.94
2018-11-07T03:27:28.624Z,88.95
2018-11-07T03:29:56.297Z,88.74
2018-11-07T03:32:24.022Z,87.88
2018-11-07T03:34:51.745Z,88.00
2018-11-07T03:37:19.479Z,87.45
2018-11-07T03:39:47.212Z,87.37
2018-11-07T03:42:14.998Z,88.21
2018-11-07T03:44:42.691Z,87.88
2018-11-07T03:47:10.414Z,88.57
2018-11-07T03:49:38.216Z,88.42
2018-11-07T03:52:05.902Z,88.06
2018-11-07T03:54:33.604Z,88.44
2018-11-07T03:57:01.393Z,88.43
2018-11-07T03:59:29.119Z,88.50
2018-11-07T04:01:56.763Z,88.80
2018-11-07T04:04:24.399Z,89.08
2018-11-07T04:06:52.125Z,89.39
2018-11-07T04:09:19.917Z,88.95
2018-11-07T04:11:47.650Z,88.47
2018-11-07T04:14:15.281Z,88.38
2018-11-07T04:16:43.053Z,88.37
2018-11-07T04:19:10.785Z,88.73
2018-11-07T04:21:38.864Z,89.71
2018-11-07T04:24:06.529Z,89.06
2018-11-07T04:26:36.352Z,88.82
2018-11-07T04:29:04.324Z,88.67
2018-11-07T04:31:32.036Z,88.72
2018-11-07T04:33:59.852Z,88.94
2018-11-07T04:36:27.558Z,89.52
2018-11-07T04:38:55.588Z,88.74
2018-11-07T04:41:23.585Z,88.68
2018-11-07T04:43:51.300Z,88.73
2018-11-07T04:46:19.039Z,88.65
2018-11-07T04:48:46.788Z,89.01
2018-11-07T04:53:42.609Z,88.89
2018-11-07T04:56:10.608Z,88.55
2018-11-07T04:58:38.324Z,89.08
2018-11-07T05:01:06.545Z,89.19
2018-11-07T05:03:34.740Z,89.53
2018-11-07T05:06:02.449Z,89.19
2018-11-07T05:08:30.172Z,89.28
2018-11-07T05:10:57.868Z,89.54
2018-11-07T05:13:29.759Z,89.75
2018-11-07T05:15:57.508Z,89.36
2018-11-07T05:18:25.150Z,89.85
2018-11-07T05:20:52.829Z,89.53
2018-11-07T05:23:20.580Z,88.64
2018-11-07T05:25:48.330Z,87.63
2018-11-07T05:28:16.070Z,88.43
2018-11-07T05:30:43.717Z,89.16
2018-11-07T05:33:11.460Z,88.82
2018-11-07T05:35:39.132Z,88.43
2018-11-07T05:38:06.874Z,88.23
2018-11-07T05:40:34.585Z,88.75
2018-11-07T05:43:02.252Z,89.28
2018-11-07T05:45:30.008Z,88.67
2018-11-07T05:47:57.756Z,88.82
2018-11-07T05:50:25.452Z,89.57
2018-11-07T05:52:53.157Z,88.78
2018-11-07T05:55:20.833Z,89.33
2018-11-07T05:57:52.126Z,90.16
2018-11-07T06:00:19.849Z,89.27
2018-11-07T06:02:47.533Z,89.63
2018-11-07T06:05:15.177Z,89.56
2018-11-07T06:07:42.873Z,89.20
2018-11-07T06:10:11.903Z,89.23
2018-11-07T06:12:40.173Z,89.86
2018-11-07T06:15:09.148Z,90.17
2018-11-07T06:17:36.900Z,89.25
2018-11-07T06:20:05.573Z,89.49
2018-11-07T06:22:33.260Z,89.50
2018-11-07T06:25:01.196Z,88.49
2018-11-07T06:27:28.689Z,88.40
2018-11-07T06:29:56.360Z,88.27
2018-11-07T06:32:24.112Z,89.17
2018-11-07T06:34:51.841Z,89.76
2018-11-07T06:37:20.017Z,89.58
2018-11-07T06:39:47.717Z,89.01
2018-11-07T06:42:15.454Z,89.28
2018-11-07T06:44:43.172Z,88.91
2018-11-07T06:47:10.909Z,88.71
2018-11-07T06:49:38.716Z,88.99
2018-11-07T06:52:06.398Z,88.65
2018-11-07T06:54:34.084Z,89.34
2018-11-07T06:57:01.789Z,89.05
2018-11-07T06:59:29.445Z,88.58
2018-11-07T07:01:57.157Z,88.79
2018-11-07T07:04:24.914Z,88.81
2018-11-07T07:06:52.621Z,88.97
2018-11-07T07:09:20.323Z,89.22
2018-11-07T07:11:48.005Z,89.77
2018-11-07T07:14:15.685Z,89.27
2018-11-07T07:16:43.449Z,89.23
2018-11-07T07:19:11.189Z,89.23
2018-11-07T07:21:38.969Z,90.15
2018-11-07T07:24:06.690Z,89.49
2018-11-07T07:26:34.422Z,89.85
2018-11-07T07:29:02.227Z,89.56
2018-11-07T07:31:29.945Z,89.52
2018-11-07T07:33:57.692Z,88.86
2018-11-07T07:36:25.444Z,88.48
2018-11-07T07:38:53.157Z,88.73
2018-11-07T07:41:20.895Z,88.19
2018-11-07T07:43:48.617Z,88.06
2018-11-07T07:46:16.269Z,88.48
2018-11-07T07:48:44.132Z,87.29
2018-11-07T07:51:11.854Z,87.81
2018-11-07T07:53:39.564Z,88.73
2018-11-07T07:56:07.318Z,87.16
2018-11-07T07:58:34.984Z,86.73
2018-11-07T08:01:02.749Z,87.01
2018-11-07T08:03:30.548Z,86.05
2018-11-07T08:05:58.288Z,85.62
2018-11-07T08:08:25.980Z,86.77
2018-11-07T08:10:53.720Z,84.62
2018-11-07T08:13:21.523Z,84.28
2018-11-07T08:15:50.159Z,83.77
2018-11-07T08:18:17.833Z,84.29
2018-11-07T08:20:45.500Z,85.89
2018-11-07T08:23:13.169Z,86.41
2018-11-07T08:25:40.827Z,86.05
2018-11-07T08:28:08.552Z,86.87
2018-11-07T08:30:36.248Z,86.58
2018-11-07T08:33:04.393Z,86.92
2018-11-07T08:35:32.097Z,85.76
2018-11-07T08:38:00.049Z,86.60
2018-11-07T08:40:27.744Z,86.14
2018-11-07T08:42:56.500Z,86.34
2018-11-07T08:45:24.229Z,85.74
2018-11-07T08:47:51.944Z,86.13
2018-11-07T08:50:20.399Z,86.56
2018-11-07T08:52:48.476Z,86.59
2018-11-07T08:55:21.268Z,86.54
2018-11-07T08:57:48.968Z,86.42
2018-11-07T09:00:17.956Z,86.50
2018-11-07T09:02:45.900Z,85.35
2018-11-07T09:05:14.421Z,84.65
2018-11-07T09:07:42.797Z,86.21
2018-11-07T09:10:11.673Z,86.99
2018-11-07T09:12:39.554Z,86.04
2018-11-07T09:15:11.889Z,86.85
2018-11-07T09:17:39.620Z,86.38
2018-11-07T09:20:09.970Z,87.57
2018-11-07T09:22:37.816Z,86.00
2018-11-07T09:25:05.957Z,84.80
2018-11-07T09:27:33.578Z,85.58
2018-11-07T09:30:01.279Z,84.90
2018-11-07T09:32:28.951Z,85.54
2018-11-07T09:34:57.418Z,85.28
2018-11-07T09:37:25.989Z,84.47
2018-11-07T09:39:54.833Z,83.81
2018-11-07T09:42:23.356Z,83.28
2018-11-07T09:44:51.683Z,84.48
2018-11-07T09:47:19.922Z,83.66
2018-11-07T09:49:48.273Z,83.47
2018-11-07T09:52:17.381Z,84.17
2018-11-07T09:54:45.735Z,84.28
2018-11-07T09:57:14.325Z,83.85
2018-11-07T09:59:42.837Z,83.76
2018-11-07T10:02:10.857Z,83.67
2018-11-07T10:04:39.276Z,83.71
2018-11-07T10:07:07.089Z,83.12
2018-11-07T10:09:35.703Z,82.39
2018-11-07T10:12:04.741Z,83.31
2018-11-07T10:14:33.179Z,81.10
2018-11-07T10:17:01.029Z,80.09
2018-11-07T10:19:29.060Z,80.16
2018-11-07T10:21:57.389Z,75.99
2018-11-07T10:24:26.285Z,78.71
2018-11-07T10:26:55.197Z,78.14
2018-11-07T10:29:24.127Z,76.68
2018-11-07T10:31:54.113Z,76.70
2018-11-07T10:34:22.954Z,74.87
2018-11-07T10:36:51.541Z,72.78
2018-11-07T10:39:20.224Z,71.27
2018-11-07T10:41:48.752Z,74.69
2018-11-07T10:44:17.000Z,71.99
2018-11-07T10:46:44.713Z,71.07
2018-11-07T10:49:12.841Z,69.72
2018-11-07T10:51:41.278Z,70.27
2018-11-07T10:54:10.158Z,68.71
2018-11-07T10:56:38.952Z,70.08
2018-11-07T10:59:07.457Z,68.15
2018-11-07T11:01:41.403Z,67.89
2018-11-07T11:04:10.324Z,68.80
2018-11-07T11:06:38.973Z,67.43
2018-11-07T11:09:07.818Z,68.04
2018-11-07T11:11:35.975Z,67.30
2018-11-07T11:14:04.556Z,63.58
2018-11-07T11:16:33.290Z,66.82
2018-11-07T11:19:02.006Z,66.66
2018-11-07T11:21:30.248Z,66.28
2018-11-07T11:23:58.732Z,66.55
2018-11-07T11:26:26.483Z,66.27
2018-11-07T11:28:54.274Z,66.25
2018-11-07T11:31:22.493Z,65.34
2018-11-07T11:33:50.804Z,65.90
2018-11-07T11:36:20.251Z,64.96
2018-11-07T11:38:49.980Z,65.31
2018-11-07T11:41:18.243Z,66.97
2018-11-07T11:43:45.950Z,64.45
2018-11-07T11:46:14.897Z,66.17
2018-11-07T11:48:43.401Z,65.06
2018-11-07T11:51:11.708Z,65.76
2018-11-07T11:53:39.775Z,64.68
2018-11-07T11:56:07.999Z,61.17
2018-11-07T11:58:36.368Z,64.69
2018-11-07T12:01:05.757Z,66.66
2018-11-07T12:03:33.821Z,66.73
2018-11-07T12:06:02.137Z,66.95
2018-11-07T12:08:31.109Z,60.67
2018-11-07T12:10:59.093Z,64.62
2018-11-07T12:13:28.317Z,66.05
2018-11-07T12:15:56.442Z,67.72
2018-11-07T12:18:24.887Z,70.04
2018-11-07T12:20:53.137Z,67.04
2018-11-07T12:23:21.386Z,69.00
2018-11-07T12:25:49.609Z,63.56
2018-11-07T12:28:18.020Z,69.34
2018-11-07T12:30:46.257Z,69.82
2018-11-07T12:33:14.519Z,69.52
2018-11-07T12:35:43.046Z,68.47
2018-11-07T12:38:11.320Z,63.78
2018-11-07T12:40:39.754Z,63.52
2018-11-07T12:43:07.870Z,65.11
2018-11-07T12:45:36.221Z,70.68
2018-11-07T12:48:04.405Z,69.71
2018-11-07T12:50:32.145Z,70.69
2018-11-07T12:52:59.750Z,64.51
2018-11-07T12:55:27.398Z,71.18
2018-11-07T12:57:55.158Z,72.26
2018-11-07T13:00:24.012Z,71.03
2018-11-07T13:02:51.860Z,71.96
2018-11-07T13:05:20.438Z,67.75
2018-11-07T13:07:48.946Z,71.38
2018-11-07T13:10:17.993Z,72.97
2018-11-07T13:12:46.233Z,62.78
2018-11-07T13:15:14.733Z,66.24
2018-11-07T13:17:42.656Z,68.70
2018-11-07T13:20:15.237Z,69.27
2018-11-07T13:22:44.062Z,69.35
2018-11-07T13:25:12.353Z,71.11
2018-11-07T13:27:40.084Z,72.34
2018-11-07T13:30:13.721Z,72.61
2018-11-07T13:32:41.661Z,70.14
2018-11-07T13:35:10.280Z,73.56
2018-11-07T13:37:38.934Z,73.74
2018-11-07T13:40:10.033Z,72.83
2018-11-07T13:42:37.700Z,71.72
2018-11-07T13:45:09.366Z,68.05
2018-11-07T13:47:37.418Z,63.19
2018-11-07T13:50:05.110Z,67.59
2018-11-07T13:52:32.852Z,67.65
2018-11-07T13:55:00.922Z,69.90
2018-11-07T13:57:28.554Z,68.97
2018-11-07T13:59:56.238Z,65.78
2018-11-07T14:02:23.986Z,70.05
2018-11-07T14:04:51.677Z,73.35
2018-11-07T14:07:19.361Z,72.83
2018-11-07T14:09:47.140Z,73.59
2018-11-07T14:12:14.914Z,74.02
2018-11-07T14:14:42.688Z,72.16
2018-11-07T14:17:10.542Z,73.77
2018-11-07T14:19:38.913Z,74.66
2018-11-07T14:22:06.636Z,75.24
2018-11-07T14:24:34.392Z,73.51
2018-11-07T14:27:02.153Z,73.59
2018-11-07T14:29:29.890Z,73.27
2018-11-07T14:31:57.817Z,73.56
2018-11-07T14:34:25.789Z,73.70
2018-11-07T14:36:53.573Z,73.10
2018-11-07T14:39:21.229Z,73.73
2018-11-07T14:41:48.972Z,74.49
2018-11-07T14:44:16.724Z,74.72
2018-11-07T14:46:44.462Z,74.31
2018-11-07T14:49:12.240Z,74.60
2018-11-07T14:51:39.980Z,74.21
2018-11-07T14:54:07.637Z,74.79
2018-11-07T14:56:35.288Z,74.43
2018-11-07T14:59:03.029Z,73.50
2018-11-07T15:01:30.732Z,74.25
2018-11-07T15:03:58.489Z,75.37
2018-11-07T15:06:26.258Z,75.16
2018-11-07T15:08:53.990Z,75.01
2018-11-07T15:11:21.825Z,74.79
2018-11-07T15:13:49.627Z,76.27
2018-11-07T15:16:17.348Z,76.00
2018-11-07T15:18:48.686Z,76.22
2018-11-07T15:21:17.476Z,76.58
2018-11-07T15:23:45.919Z,75.90
2018-11-07T15:26:13.668Z,76.43
2018-11-07T15:28:41.443Z,76.17
2018-11-07T15:31:09.153Z,76.06
2018-11-07T15:33:38.520Z,73.74
2018-11-07T15:36:06.386Z,74.87
2018-11-07T15:38:34.093Z,75.46
2018-11-07T15:41:01.902Z,75.29
2018-11-07T15:43:29.729Z,75.39
2018-11-07T15:45:57.458Z,75.13
2018-11-07T15:48:25.075Z,73.45
2018-11-07T15:50:58.663Z,76.16
2018-11-07T15:53:26.381Z,74.76
2018-11-07T15:55:54.061Z,76.32
2018-11-07T15:58:23.076Z,75.99
2018-11-07T16:00:51.789Z,74.85
2018-11-07T16:03:25.284Z,74.92
2018-11-07T16:05:53.054Z,75.29
2018-11-07T16:08:20.740Z,74.84
2018-11-07T16:10:48.393Z,75.80
2018-11-07T16:13:16.208Z,75.64
2018-11-07T16:15:44.648Z,76.55
2018-11-07T16:18:13.605Z,76.24
2018-11-07T16:20:43.920Z,75.88
2018-11-07T16:23:11.577Z,76.38
2018-11-07T16:25:39.350Z,76.06
2018-11-07T16:28:07.106Z,76.57
2018-11-07T16:30:34.865Z,76.66
2018-11-07T16:33:02.553Z,76.75
2018-11-07T16:35:30.328Z,76.48
2018-11-07T16:37:58.091Z,76.51
2018-11-07T16:40:25.918Z,77.00
2018-11-07T16:42:53.669Z,76.75
2018-11-07T16:45:21.414Z,76.62
2018-11-07T16:47:49.171Z,76.52
2018-11-07T16:50:17.520Z,76.79
2018-11-07T16:52:45.259Z,77.20
2018-11-07T16:55:13.471Z,76.67
2018-11-07T16:57:41.268Z,76.37
2018-11-07T17:00:14.092Z,76.53
2018-11-07T17:02:42.654Z,76.99
2018-11-07T17:05:11.193Z,77.15
2018-11-07T17:07:39.297Z,77.48
2018-11-07T17:10:08.008Z,77.36
2018-11-07T17:12:35.993Z,76.97
2018-11-07T17:15:03.785Z,77.38
2018-11-07T17:17:31.520Z,77.04
2018-11-07T17:19:59.362Z,77.04
2018-11-07T17:22:27.285Z,77.08
2018-11-07T17:24:55.809Z,77.31
2018-11-07T17:27:23.728Z,77.71
2018-11-07T17:29:51.524Z,77.95
2018-11-07T17:32:19.254Z,77.63
2018-11-07T17:34:47.021Z,77.98
2018-11-07T17:37:14.813Z,78.58
2018-11-07T17:39:42.509Z,78.97
2018-11-07T17:42:10.225Z,79.02
2018-11-07T17:44:39.249Z,78.76
2018-11-07T17:47:07.888Z,78.18
2018-11-07T17:49:35.660Z,79.27
2018-11-07T17:52:03.384Z,79.25
2018-11-07T17:54:31.085Z,78.69
2018-11-07T17:56:59.366Z,80.03
2018-11-07T17:59:27.201Z,79.72
2018-11-07T18:01:55.019Z,79.42
2018-11-07T18:04:22.834Z,78.16
2018-11-07T18:06:50.508Z,78.45
2018-11-07T18:09:18.289Z,78.22
2018-11-07T18:11:46.060Z,77.83
2018-11-07T18:14:13.817Z,78.66
2018-11-07T18:16:41.627Z,78.75
2018-11-07T18:19:09.981Z,79.32
2018-11-07T18:21:37.821Z,78.33
2018-11-07T18:24:05.633Z,78.59
2018-11-07T18:26:33.491Z,79.51
2018-11-07T18:29:01.265Z,79.12
2018-11-07T18:31:29.592Z,79.70
2018-11-07T18:33:57.337Z,78.47
2018-11-07T18:36:25.162Z,79.02
2018-11-07T18:38:52.909Z,78.96
2018-11-07T18:41:20.637Z,78.66
2018-11-07T18:43:48.372Z,78.21
2018-11-07T18:46:16.083Z,78.29
2018-11-07T18:48:43.750Z,78.83
2018-11-07T18:51:11.431Z,78.11
2018-11-07T18:53:39.160Z,79.00
2018-11-07T18:56:06.838Z,79.18
2018-11-07T18:58:34.672Z,79.10
2018-11-07T19:01:02.361Z,78.56
2018-11-07T19:03:30.062Z,79.60
2018-11-07T19:05:57.820Z,79.40
2018-11-07T19:08:25.564Z,79.90
2018-11-07T19:10:53.301Z,79.66
2018-11-07T19:13:21.021Z,80.27
2018-11-07T19:15:48.679Z,79.61
2018-11-07T19:18:16.475Z,80.10
2018-11-07T19:20:44.221Z,80.36
2018-11-07T19:23:11.969Z,80.72
2018-11-07T19:25:39.777Z,80.83
2018-11-07T19:28:08.098Z,79.89
2018-11-07T19:30:36.834Z,80.04
2018-11-07T19:33:06.282Z,80.15
2018-11-07T19:35:34.373Z,79.70
2018-11-07T19:38:02.485Z,80.27
2018-11-07T19:40:31.453Z,80.96
2018-11-07T19:42:59.393Z,80.40
2018-11-07T19:45:27.769Z,79.80
2018-11-07T19:47:55.549Z,80.14
2018-11-07T19:50:24.577Z,79.62
2018-11-07T19:52:53.134Z,80.35
2018-11-07T19:55:23.089Z,80.63
2018-11-07T19:57:55.344Z,80.04
2018-11-07T20:00:24.305Z,80.05
2018-11-07T20:02:52.228Z,80.67
2018-11-07T20:05:20.001Z,79.91
2018-11-07T20:07:47.677Z,81.00
2018-11-07T20:10:16.841Z,80.62
2018-11-07T20:12:44.530Z,80.38
2018-11-07T20:15:13.446Z,83.21
2018-11-07T20:17:41.312Z,81.29
2018-11-07T20:20:09.325Z,80.90
2018-11-07T20:22:37.132Z,80.73
2018-11-07T20:25:06.456Z,81.42
2018-11-07T20:27:34.250Z,81.44
2018-11-07T20:30:02.024Z,81.20
2018-11-07T20:32:29.765Z,80.73
2018-11-07T20:34:57.632Z,80.79
2018-11-07T20:37:25.560Z,80.81
2018-11-07T20:39:53.256Z,81.27
2018-11-07T20:42:20.945Z,80.89
2018-11-07T20:44:48.613Z,81.12
2018-11-07T20:47:16.305Z,81.17
2018-11-07T20:49:44.239Z,81.67
2018-11-07T20:52:11.945Z,81.78
2018-11-07T20:54:39.788Z,81.45
2018-11-07T20:57:07.412Z,81.24
2018-11-07T20:59:35.545Z,81.19
2018-11-07T21:02:03.657Z,81.12
2018-11-07T21:04:31.430Z,81.31
2018-11-07T21:06:59.196Z,81.24
2018-11-07T21:09:27.031Z,82.53
2018-11-07T21:11:54.776Z,82.02
2018-11-07T21:14:22.459Z,81.85
2018-11-07T21:16:50.211Z,82.09
2018-11-07T21:19:17.944Z,81.43
2018-11-07T21:21:45.601Z,81.00
2018-11-07T21:24:17.183Z,80.69
2018-11-07T21:26:45.024Z,81.22
2018-11-07T21:29:12.748Z,81.37
2018-11-07T21:31:40.460Z,82.79
2018-11-07T21:34:08.224Z,82.49
2018-11-07T21:36:35.905Z,81.41
2018-11-07T21:39:07.180Z,81.90
2018-11-07T21:41:35.261Z,82.03
2018-11-07T21:44:03.113Z,82.53
2018-11-07T21:46:30.880Z,82.07
2018-11-07T21:48:58.648Z,81.34
2018-11-07T21:51:26.643Z,81.49
2018-11-07T21:53:54.360Z,81.73
2018-11-07T21:56:22.231Z,82.20
2018-11-07T21:58:50.035Z,81.52
2018-11-07T22:01:17.700Z,81.94
2018-11-07T22:03:45.464Z,81.49
2018-11-07T22:06:13.134Z,81.92
2018-11-07T22:08:40.965Z,81.11
2018-11-07T22:11:08.656Z,81.35
2018-11-07T22:13:36.364Z,82.13
2018-11-07T22:16:04.440Z,81.59
2018-11-07T22:18:32.107Z,81.92
2018-11-07T22:21:00.135Z,83.08
2018-11-07T22:23:29.109Z,82.25
2018-11-07T22:25:56.865Z,82.28
2018-11-07T22:28:24.577Z,82.20
2018-11-07T22:30:52.314Z,82.04
2018-11-07T22:33:20.062Z,82.08
2018-11-07T22:35:47.831Z,81.89
2018-11-07T22:38:15.542Z,81.88
2018-11-07T22:40:43.261Z,81.78
2018-11-07T22:43:11.049Z,81.84
2018-11-07T22:45:38.813Z,82.01
2018-11-07T22:48:06.602Z,82.16
2018-11-07T22:50:35.138Z,83.81
2018-11-07T22:53:02.860Z,83.36
2018-11-07T22:55:30.545Z,84.53
2018-11-07T22:57:58.225Z,83.75
2018-11-07T23:00:31.709Z,85.32
2018-11-07T23:02:59.443Z,85.85
2018-11-07T23:05:27.144Z,83.49
2018-11-07T23:07:54.933Z,83.80
2018-11-07T23:10:22.604Z,84.16
2018-11-07T23:12:50.612Z,85.94
2018-11-07T23:15:24.148Z,84.58
2018-11-07T23:17:51.869Z,83.83
2018-11-07T23:20:19.585Z,84.32
2018-11-07T23:22:47.303Z,86.24
2018-11-07T23:25:14.977Z,86.14
2018-11-07T23:27:42.818Z,85.54
2018-11-07T23:30:10.537Z,85.48
2018-11-07T23:32:38.378Z,85.45
2018-11-07T23:35:06.501Z,85.20
2018-11-07T23:37:34.238Z,85.65
2018-11-07T23:40:01.993Z,85.16
2018-11-07T23:42:29.721Z,85.37
2018-11-07T23:44:57.460Z,85.52
2018-11-07T23:47:25.206Z,85.62
2018-11-07T23:49:52.876Z,85.66
2018-11-07T23:52:26.280Z,85.60
2018-11-07T23:54:54.014Z,85.52
2018-11-07T23:57:21.796Z,86.16
2018-11-07T23:59:49.431Z,84.92
